sensor_id;sensor_type;location;lat;lon;timestamp;P1;durP1;ratioP1;P2;durP2;ratioP2
5734;SDS011;2892;47.592;7.688;2024-02-28T00:00:33;16.00;;;6.40;;
5734;SDS011;2892;47.592;7.688;2024-02-28T00:02:58;8.40;;;5.07;;
5734;SDS011;2892;47.592;7.688;2024-02-28T00:05:24;12.17;;;5.23;;
5734;SDS011;2892;47.592;7.688;2024-02-28T00:07:49;11.53;;;6.43;;
5734;SDS011;2892;47.592;7.688;2024-02-28T00:10:15;18.63;;;7.70;;
5734;SDS011;2892;47.592;7.688;2024-02-28T00:12:40;12.63;;;5.03;;
5734;SDS011;2892;47.592;7.688;2024-02-28T00:15:06;13.13;;;5.77;;
5734;SDS011;2892;47.592;7.688;2024-02-28T00:17:31;7.67;;;3.87;;
5734;SDS011;2892;47.592;7.688;2024-02-28T00:19:57;10.90;;;3.73;;
5734;SDS011;2892;47.592;7.688;2024-02-28T00:22:22;8.17;;;5.10;;
5734;SDS011;2892;47.592;7.688;2024-02-28T00:24:48;9.20;;;5.00;;
5734;SDS011;2892;47.592;7.688;2024-02-28T00:27:13;10.00;;;5.73;;
5734;SDS011;2892;47.592;7.688;2024-02-28T00:29:39;12.97;;;6.60;;
5734;SDS011;2892;47.592;7.688;2024-02-28T00:32:04;8.97;;;5.40;;
5734;SDS011;2892;47.592;7.688;2024-02-28T00:34:30;5.97;;;3.77;;
5734;SDS011;2892;47.592;7.688;2024-02-28T00:36:56;10.00;;;5.07;;
5734;SDS011;2892;47.592;7.688;2024-02-28T00:39:21;7.97;;;5.13;;
5734;SDS011;2892;47.592;7.688;2024-02-28T00:41:47;10.67;;;6.40;;
5734;SDS011;2892;47.592;7.688;2024-02-28T00:44:12;9.63;;;5.00;;
5734;SDS011;2892;47.592;7.688;2024-02-28T00:46:39;10.40;;;6.17;;
5734;SDS011;2892;47.592;7.688;2024-02-28T00:49:04;8.50;;;3.50;;
5734;SDS011;2892;47.592;7.688;2024-02-28T00:51:30;14.70;;;6.30;;
5734;SDS011;2892;47.592;7.688;2024-02-28T00:53:55;5.83;;;3.63;;
5734;SDS011;2892;47.592;7.688;2024-02-28T00:56:21;8.93;;;4.87;;
5734;SDS011;2892;47.592;7.688;2024-02-28T00:58:46;10.63;;;5.60;;
5734;SDS011;2892;47.592;7.688;2024-02-28T01:01:12;12.43;;;5.97;;
5734;SDS011;2892;47.592;7.688;2024-02-28T01:03:37;9.43;;;5.20;;
5734;SDS011;2892;47.592;7.688;2024-02-28T01:06:03;10.13;;;4.53;;
5734;SDS011;2892;47.592;7.688;2024-02-28T01:08:29;9.30;;;6.63;;
5734;SDS011;2892;47.592;7.688;2024-02-28T01:10:54;13.97;;;7.83;;
5734;SDS011;2892;47.592;7.688;2024-02-28T01:13:20;14.77;;;5.47;;
5734;SDS011;2892;47.592;7.688;2024-02-28T01:15:45;10.33;;;5.73;;
5734;SDS011;2892;47.592;7.688;2024-02-28T01:18:11;11.60;;;6.20;;
5734;SDS011;2892;47.592;7.688;2024-02-28T01:20:36;10.50;;;5.30;;
5734;SDS011;2892;47.592;7.688;2024-02-28T01:23:02;7.50;;;4.63;;
5734;SDS011;2892;47.592;7.688;2024-02-28T01:25:28;12.73;;;5.03;;
5734;SDS011;2892;47.592;7.688;2024-02-28T01:27:53;11.77;;;6.37;;
5734;SDS011;2892;47.592;7.688;2024-02-28T01:30:20;10.87;;;6.50;;
5734;SDS011;2892;47.592;7.688;2024-02-28T01:32:46;6.53;;;4.27;;
5734;SDS011;2892;47.592;7.688;2024-02-28T01:35:11;16.90;;;8.43;;
5734;SDS011;2892;47.592;7.688;2024-02-28T01:37:37;11.17;;;6.80;;
5734;SDS011;2892;47.592;7.688;2024-02-28T01:40:02;15.70;;;6.20;;
5734;SDS011;2892;47.592;7.688;2024-02-28T01:42:28;10.53;;;6.10;;
5734;SDS011;2892;47.592;7.688;2024-02-28T01:44:54;7.87;;;5.23;;
5734;SDS011;2892;47.592;7.688;2024-02-28T01:47:19;14.60;;;6.60;;
5734;SDS011;2892;47.592;7.688;2024-02-28T01:49:45;14.17;;;6.57;;
5734;SDS011;2892;47.592;7.688;2024-02-28T01:52:12;14.27;;;5.90;;
5734;SDS011;2892;47.592;7.688;2024-02-28T01:54:38;6.80;;;3.57;;
5734;SDS011;2892;47.592;7.688;2024-02-28T01:57:04;11.10;;;5.40;;
5734;SDS011;2892;47.592;7.688;2024-02-28T01:59:31;11.63;;;6.70;;
5734;SDS011;2892;47.592;7.688;2024-02-28T02:01:56;13.10;;;6.70;;
5734;SDS011;2892;47.592;7.688;2024-02-28T02:04:22;7.60;;;4.80;;
5734;SDS011;2892;47.592;7.688;2024-02-28T02:06:47;11.67;;;6.40;;
5734;SDS011;2892;47.592;7.688;2024-02-28T02:09:14;13.47;;;5.90;;
5734;SDS011;2892;47.592;7.688;2024-02-28T02:11:40;13.00;;;6.87;;
5734;SDS011;2892;47.592;7.688;2024-02-28T02:14:06;15.10;;;5.77;;
5734;SDS011;2892;47.592;7.688;2024-02-28T02:16:32;15.53;;;8.33;;
5734;SDS011;2892;47.592;7.688;2024-02-28T02:18:57;15.60;;;8.37;;
5734;SDS011;2892;47.592;7.688;2024-02-28T02:21:23;17.23;;;8.13;;
5734;SDS011;2892;47.592;7.688;2024-02-28T02:23:54;10.40;;;6.27;;
5734;SDS011;2892;47.592;7.688;2024-02-28T02:26:20;17.43;;;8.90;;
5734;SDS011;2892;47.592;7.688;2024-02-28T02:28:45;15.00;;;6.77;;
5734;SDS011;2892;47.592;7.688;2024-02-28T02:31:11;22.97;;;9.40;;
5734;SDS011;2892;47.592;7.688;2024-02-28T02:33:37;12.00;;;6.73;;
5734;SDS011;2892;47.592;7.688;2024-02-28T02:36:03;11.10;;;4.60;;
5734;SDS011;2892;47.592;7.688;2024-02-28T02:38:28;17.27;;;7.70;;
5734;SDS011;2892;47.592;7.688;2024-02-28T02:40:54;13.27;;;7.10;;
5734;SDS011;2892;47.592;7.688;2024-02-28T02:43:19;14.57;;;6.57;;
5734;SDS011;2892;47.592;7.688;2024-02-28T02:45:45;10.13;;;5.10;;
5734;SDS011;2892;47.592;7.688;2024-02-28T02:48:10;11.63;;;5.97;;
5734;SDS011;2892;47.592;7.688;2024-02-28T02:50:36;12.73;;;4.37;;
5734;SDS011;2892;47.592;7.688;2024-02-28T02:53:02;13.60;;;7.90;;
5734;SDS011;2892;47.592;7.688;2024-02-28T02:55:28;15.33;;;7.87;;
5734;SDS011;2892;47.592;7.688;2024-02-28T02:57:54;12.40;;;4.47;;
5734;SDS011;2892;47.592;7.688;2024-02-28T03:00:19;17.10;;;9.30;;
5734;SDS011;2892;47.592;7.688;2024-02-28T03:02:45;10.77;;;5.20;;
5734;SDS011;2892;47.592;7.688;2024-02-28T03:05:11;7.60;;;5.20;;
5734;SDS011;2892;47.592;7.688;2024-02-28T03:07:36;9.90;;;7.00;;
5734;SDS011;2892;47.592;7.688;2024-02-28T03:10:02;10.20;;;6.50;;
5734;SDS011;2892;47.592;7.688;2024-02-28T03:12:28;12.27;;;5.50;;
5734;SDS011;2892;47.592;7.688;2024-02-28T03:14:53;13.13;;;6.70;;
5734;SDS011;2892;47.592;7.688;2024-02-28T03:17:19;17.83;;;9.17;;
5734;SDS011;2892;47.592;7.688;2024-02-28T03:19:44;14.60;;;8.87;;
5734;SDS011;2892;47.592;7.688;2024-02-28T03:22:10;14.80;;;7.07;;
5734;SDS011;2892;47.592;7.688;2024-02-28T03:24:35;13.00;;;6.43;;
5734;SDS011;2892;47.592;7.688;2024-02-28T03:27:01;15.70;;;7.67;;
5734;SDS011;2892;47.592;7.688;2024-02-28T03:29:27;12.13;;;6.20;;
5734;SDS011;2892;47.592;7.688;2024-02-28T03:31:52;16.70;;;7.33;;
5734;SDS011;2892;47.592;7.688;2024-02-28T03:34:18;8.33;;;5.40;;
5734;SDS011;2892;47.592;7.688;2024-02-28T03:36:44;18.80;;;7.30;;
5734;SDS011;2892;47.592;7.688;2024-02-28T03:39:09;10.83;;;4.77;;
5734;SDS011;2892;47.592;7.688;2024-02-28T03:41:35;19.03;;;7.30;;
5734;SDS011;2892;47.592;7.688;2024-02-28T03:44:00;18.50;;;9.23;;
5734;SDS011;2892;47.592;7.688;2024-02-28T03:46:26;11.97;;;5.67;;
5734;SDS011;2892;47.592;7.688;2024-02-28T03:48:52;9.10;;;4.77;;
5734;SDS011;2892;47.592;7.688;2024-02-28T03:51:17;25.37;;;11.60;;
5734;SDS011;2892;47.592;7.688;2024-02-28T03:53:43;22.23;;;9.70;;
5734;SDS011;2892;47.592;7.688;2024-02-28T03:56:08;11.90;;;6.33;;
5734;SDS011;2892;47.592;7.688;2024-02-28T03:58:34;14.90;;;7.23;;
5734;SDS011;2892;47.592;7.688;2024-02-28T04:01:00;28.13;;;12.67;;
5734;SDS011;2892;47.592;7.688;2024-02-28T04:03:25;29.00;;;12.47;;
5734;SDS011;2892;47.592;7.688;2024-02-28T04:05:51;21.17;;;12.80;;
5734;SDS011;2892;47.592;7.688;2024-02-28T04:08:16;32.13;;;14.67;;
5734;SDS011;2892;47.592;7.688;2024-02-28T04:10:42;18.60;;;12.87;;
5734;SDS011;2892;47.592;7.688;2024-02-28T04:13:07;29.60;;;13.13;;
5734;SDS011;2892;47.592;7.688;2024-02-28T04:15:33;30.27;;;13.63;;
5734;SDS011;2892;47.592;7.688;2024-02-28T04:17:58;32.13;;;14.53;;
5734;SDS011;2892;47.592;7.688;2024-02-28T04:20:24;26.43;;;14.83;;
5734;SDS011;2892;47.592;7.688;2024-02-28T04:22:50;28.77;;;13.77;;
5734;SDS011;2892;47.592;7.688;2024-02-28T04:25:15;28.30;;;13.93;;
5734;SDS011;2892;47.592;7.688;2024-02-28T04:27:41;33.23;;;15.50;;
5734;SDS011;2892;47.592;7.688;2024-02-28T04:30:06;19.63;;;12.97;;
5734;SDS011;2892;47.592;7.688;2024-02-28T04:32:32;26.17;;;12.60;;
5734;SDS011;2892;47.592;7.688;2024-02-28T04:34:57;26.07;;;13.17;;
5734;SDS011;2892;47.592;7.688;2024-02-28T04:37:23;31.10;;;14.90;;
5734;SDS011;2892;47.592;7.688;2024-02-28T04:39:48;28.37;;;14.37;;
5734;SDS011;2892;47.592;7.688;2024-02-28T04:42:15;36.60;;;15.83;;
5734;SDS011;2892;47.592;7.688;2024-02-28T04:44:41;29.30;;;15.00;;
5734;SDS011;2892;47.592;7.688;2024-02-28T04:47:06;25.77;;;13.47;;
5734;SDS011;2892;47.592;7.688;2024-02-28T04:49:32;29.40;;;11.57;;
5734;SDS011;2892;47.592;7.688;2024-02-28T04:51:57;22.93;;;12.17;;
5734;SDS011;2892;47.592;7.688;2024-02-28T04:54:23;24.20;;;14.50;;
5734;SDS011;2892;47.592;7.688;2024-02-28T04:56:48;27.50;;;13.90;;
5734;SDS011;2892;47.592;7.688;2024-02-28T04:59:14;32.27;;;14.53;;
5734;SDS011;2892;47.592;7.688;2024-02-28T05:01:39;32.23;;;15.33;;
5734;SDS011;2892;47.592;7.688;2024-02-28T05:04:06;26.47;;;12.20;;
5734;SDS011;2892;47.592;7.688;2024-02-28T05:06:32;25.33;;;13.53;;
5734;SDS011;2892;47.592;7.688;2024-02-28T05:08:57;31.00;;;16.50;;
5734;SDS011;2892;47.592;7.688;2024-02-28T05:11:23;24.33;;;13.30;;
5734;SDS011;2892;47.592;7.688;2024-02-28T05:13:48;26.13;;;13.93;;
5734;SDS011;2892;47.592;7.688;2024-02-28T05:16:14;28.40;;;12.57;;
5734;SDS011;2892;47.592;7.688;2024-02-28T05:18:40;32.10;;;16.13;;
5734;SDS011;2892;47.592;7.688;2024-02-28T05:21:06;32.03;;;17.40;;
5734;SDS011;2892;47.592;7.688;2024-02-28T05:23:32;28.80;;;16.03;;
5734;SDS011;2892;47.592;7.688;2024-02-28T05:25:57;29.90;;;15.43;;
5734;SDS011;2892;47.592;7.688;2024-02-28T05:28:23;30.73;;;17.23;;
5734;SDS011;2892;47.592;7.688;2024-02-28T05:30:49;29.27;;;14.43;;
5734;SDS011;2892;47.592;7.688;2024-02-28T05:33:15;22.43;;;12.87;;
5734;SDS011;2892;47.592;7.688;2024-02-28T05:35:40;27.03;;;13.60;;
5734;SDS011;2892;47.592;7.688;2024-02-28T05:38:06;30.57;;;14.80;;
5734;SDS011;2892;47.592;7.688;2024-02-28T05:40:31;24.67;;;13.70;;
5734;SDS011;2892;47.592;7.688;2024-02-28T05:42:57;34.13;;;15.70;;
5734;SDS011;2892;47.592;7.688;2024-02-28T05:45:22;32.20;;;13.83;;
5734;SDS011;2892;47.592;7.688;2024-02-28T05:47:48;26.90;;;14.53;;
5734;SDS011;2892;47.592;7.688;2024-02-28T05:50:13;29.93;;;14.93;;
5734;SDS011;2892;47.592;7.688;2024-02-28T05:52:41;26.97;;;13.83;;
5734;SDS011;2892;47.592;7.688;2024-02-28T05:55:07;31.33;;;15.70;;
5734;SDS011;2892;47.592;7.688;2024-02-28T05:57:32;43.77;;;17.23;;
5734;SDS011;2892;47.592;7.688;2024-02-28T05:59:58;30.10;;;13.53;;
5734;SDS011;2892;47.592;7.688;2024-02-28T06:02:23;25.33;;;11.77;;
5734;SDS011;2892;47.592;7.688;2024-02-28T06:04:48;38.70;;;16.53;;
5734;SDS011;2892;47.592;7.688;2024-02-28T06:07:14;35.87;;;14.40;;
5734;SDS011;2892;47.592;7.688;2024-02-28T06:09:39;29.50;;;14.90;;
5734;SDS011;2892;47.592;7.688;2024-02-28T06:12:05;23.00;;;12.17;;
5734;SDS011;2892;47.592;7.688;2024-02-28T06:14:31;36.27;;;15.70;;
5734;SDS011;2892;47.592;7.688;2024-02-28T06:16:56;24.57;;;14.17;;
5734;SDS011;2892;47.592;7.688;2024-02-28T06:19:22;29.27;;;13.30;;
5734;SDS011;2892;47.592;7.688;2024-02-28T06:21:47;31.27;;;16.23;;
5734;SDS011;2892;47.592;7.688;2024-02-28T06:24:13;36.13;;;16.70;;
5734;SDS011;2892;47.592;7.688;2024-02-28T06:26:38;31.27;;;16.33;;
5734;SDS011;2892;47.592;7.688;2024-02-28T06:29:04;29.90;;;16.10;;
5734;SDS011;2892;47.592;7.688;2024-02-28T06:31:29;56.43;;;24.20;;
5734;SDS011;2892;47.592;7.688;2024-02-28T06:33:55;41.30;;;23.27;;
5734;SDS011;2892;47.592;7.688;2024-02-28T06:36:20;44.67;;;22.20;;
5734;SDS011;2892;47.592;7.688;2024-02-28T06:38:46;39.13;;;22.43;;
5734;SDS011;2892;47.592;7.688;2024-02-28T06:41:11;42.97;;;23.83;;
5734;SDS011;2892;47.592;7.688;2024-02-28T06:43:37;50.97;;;25.70;;
5734;SDS011;2892;47.592;7.688;2024-02-28T06:46:03;40.30;;;25.43;;
5734;SDS011;2892;47.592;7.688;2024-02-28T06:48:29;43.30;;;23.20;;
5734;SDS011;2892;47.592;7.688;2024-02-28T06:50:54;45.77;;;24.60;;
5734;SDS011;2892;47.592;7.688;2024-02-28T06:53:21;41.23;;;22.83;;
5734;SDS011;2892;47.592;7.688;2024-02-28T06:55:46;42.87;;;24.77;;
5734;SDS011;2892;47.592;7.688;2024-02-28T06:58:12;43.57;;;23.40;;
5734;SDS011;2892;47.592;7.688;2024-02-28T07:00:37;46.80;;;25.60;;
5734;SDS011;2892;47.592;7.688;2024-02-28T07:03:03;37.30;;;22.53;;
5734;SDS011;2892;47.592;7.688;2024-02-28T07:05:28;46.17;;;24.40;;
5734;SDS011;2892;47.592;7.688;2024-02-28T07:07:54;56.53;;;25.37;;
5734;SDS011;2892;47.592;7.688;2024-02-28T07:10:19;35.17;;;20.90;;
5734;SDS011;2892;47.592;7.688;2024-02-28T07:12:45;52.30;;;24.90;;
5734;SDS011;2892;47.592;7.688;2024-02-28T07:15:10;41.97;;;24.67;;
5734;SDS011;2892;47.592;7.688;2024-02-28T07:17:36;45.97;;;25.80;;
5734;SDS011;2892;47.592;7.688;2024-02-28T07:20:01;54.70;;;27.53;;
5734;SDS011;2892;47.592;7.688;2024-02-28T07:22:27;62.07;;;25.10;;
5734;SDS011;2892;47.592;7.688;2024-02-28T07:24:52;49.33;;;25.33;;
5734;SDS011;2892;47.592;7.688;2024-02-28T07:27:18;41.63;;;21.73;;
5734;SDS011;2892;47.592;7.688;2024-02-28T07:29:43;39.50;;;21.83;;
5734;SDS011;2892;47.592;7.688;2024-02-28T07:32:09;48.10;;;24.83;;
5734;SDS011;2892;47.592;7.688;2024-02-28T07:34:34;39.57;;;22.10;;
5734;SDS011;2892;47.592;7.688;2024-02-28T07:37:00;42.00;;;21.93;;
5734;SDS011;2892;47.592;7.688;2024-02-28T07:39:26;52.17;;;25.13;;
5734;SDS011;2892;47.592;7.688;2024-02-28T07:41:51;38.93;;;21.30;;
5734;SDS011;2892;47.592;7.688;2024-02-28T07:44:17;38.33;;;22.90;;
5734;SDS011;2892;47.592;7.688;2024-02-28T07:46:42;46.83;;;22.93;;
5734;SDS011;2892;47.592;7.688;2024-02-28T07:49:08;36.37;;;19.53;;
5734;SDS011;2892;47.592;7.688;2024-02-28T07:51:33;40.20;;;21.67;;
5734;SDS011;2892;47.592;7.688;2024-02-28T07:53:59;38.30;;;23.57;;
5734;SDS011;2892;47.592;7.688;2024-02-28T07:56:24;45.07;;;24.37;;
5734;SDS011;2892;47.592;7.688;2024-02-28T07:58:50;40.33;;;22.47;;
5734;SDS011;2892;47.592;7.688;2024-02-28T08:01:15;51.63;;;23.77;;
5734;SDS011;2892;47.592;7.688;2024-02-28T08:03:41;43.50;;;25.77;;
5734;SDS011;2892;47.592;7.688;2024-02-28T08:06:06;42.57;;;25.17;;
5734;SDS011;2892;47.592;7.688;2024-02-28T08:08:32;41.10;;;22.40;;
5734;SDS011;2892;47.592;7.688;2024-02-28T08:10:57;44.93;;;23.37;;
5734;SDS011;2892;47.592;7.688;2024-02-28T08:13:23;44.40;;;25.80;;
5734;SDS011;2892;47.592;7.688;2024-02-28T08:15:49;45.27;;;24.53;;
5734;SDS011;2892;47.592;7.688;2024-02-28T08:18:15;56.40;;;25.47;;
5734;SDS011;2892;47.592;7.688;2024-02-28T08:20:40;38.07;;;23.07;;
5734;SDS011;2892;47.592;7.688;2024-02-28T08:23:06;62.93;;;26.97;;
5734;SDS011;2892;47.592;7.688;2024-02-28T08:25:31;36.60;;;20.43;;
5734;SDS011;2892;47.592;7.688;2024-02-28T08:27:57;46.47;;;23.47;;
5734;SDS011;2892;47.592;7.688;2024-02-28T08:30:23;52.03;;;24.73;;
5734;SDS011;2892;47.592;7.688;2024-02-28T08:32:48;40.83;;;22.23;;
5734;SDS011;2892;47.592;7.688;2024-02-28T08:35:14;48.50;;;25.30;;
5734;SDS011;2892;47.592;7.688;2024-02-28T08:37:40;42.07;;;20.77;;
5734;SDS011;2892;47.592;7.688;2024-02-28T08:40:06;42.47;;;23.00;;
5734;SDS011;2892;47.592;7.688;2024-02-28T08:42:32;39.27;;;21.77;;
5734;SDS011;2892;47.592;7.688;2024-02-28T08:44:57;39.77;;;23.87;;
5734;SDS011;2892;47.592;7.688;2024-02-28T08:47:24;47.77;;;22.20;;
5734;SDS011;2892;47.592;7.688;2024-02-28T08:49:50;49.60;;;23.20;;
5734;SDS011;2892;47.592;7.688;2024-02-28T08:52:16;40.13;;;21.80;;
5734;SDS011;2892;47.592;7.688;2024-02-28T08:54:42;34.70;;;20.90;;
5734;SDS011;2892;47.592;7.688;2024-02-28T08:57:07;32.57;;;17.23;;
5734;SDS011;2892;47.592;7.688;2024-02-28T08:59:33;47.67;;;20.03;;
5734;SDS011;2892;47.592;7.688;2024-02-28T09:01:58;37.43;;;20.60;;
5734;SDS011;2892;47.592;7.688;2024-02-28T09:04:24;34.33;;;20.53;;
5734;SDS011;2892;47.592;7.688;2024-02-28T09:06:49;36.60;;;21.03;;
5734;SDS011;2892;47.592;7.688;2024-02-28T09:09:15;29.70;;;18.77;;
5734;SDS011;2892;47.592;7.688;2024-02-28T09:11:41;32.30;;;19.07;;
5734;SDS011;2892;47.592;7.688;2024-02-28T09:14:06;32.97;;;19.23;;
5734;SDS011;2892;47.592;7.688;2024-02-28T09:16:31;41.90;;;23.17;;
5734;SDS011;2892;47.592;7.688;2024-02-28T09:18:57;43.80;;;23.50;;
5734;SDS011;2892;47.592;7.688;2024-02-28T09:21:22;40.67;;;22.63;;
5734;SDS011;2892;47.592;7.688;2024-02-28T09:23:48;42.07;;;21.63;;
5734;SDS011;2892;47.592;7.688;2024-02-28T09:26:13;36.50;;;20.93;;
5734;SDS011;2892;47.592;7.688;2024-02-28T09:28:39;41.87;;;21.93;;
5734;SDS011;2892;47.592;7.688;2024-02-28T09:31:04;42.87;;;22.70;;
5734;SDS011;2892;47.592;7.688;2024-02-28T09:33:30;50.67;;;25.17;;
5734;SDS011;2892;47.592;7.688;2024-02-28T09:35:55;44.20;;;24.77;;
5734;SDS011;2892;47.592;7.688;2024-02-28T09:38:21;45.20;;;22.77;;
5734;SDS011;2892;47.592;7.688;2024-02-28T09:40:46;46.67;;;24.20;;
5734;SDS011;2892;47.592;7.688;2024-02-28T09:43:15;41.40;;;24.57;;
5734;SDS011;2892;47.592;7.688;2024-02-28T09:45:44;46.07;;;22.67;;
5734;SDS011;2892;47.592;7.688;2024-02-28T09:48:10;39.27;;;22.87;;
5734;SDS011;2892;47.592;7.688;2024-02-28T09:50:37;41.80;;;20.93;;
5734;SDS011;2892;47.592;7.688;2024-02-28T09:53:04;43.70;;;22.87;;
5734;SDS011;2892;47.592;7.688;2024-02-28T09:55:29;42.30;;;21.87;;
5734;SDS011;2892;47.592;7.688;2024-02-28T09:57:57;41.43;;;20.03;;
5734;SDS011;2892;47.592;7.688;2024-02-28T10:00:23;37.10;;;19.10;;
5734;SDS011;2892;47.592;7.688;2024-02-28T10:02:50;40.57;;;21.60;;
5734;SDS011;2892;47.592;7.688;2024-02-28T10:05:17;41.87;;;22.97;;
5734;SDS011;2892;47.592;7.688;2024-02-28T10:07:43;38.57;;;20.80;;
5734;SDS011;2892;47.592;7.688;2024-02-28T10:10:08;39.67;;;20.33;;
5734;SDS011;2892;47.592;7.688;2024-02-28T10:12:34;48.03;;;23.90;;
5734;SDS011;2892;47.592;7.688;2024-02-28T10:15:00;39.80;;;21.83;;
5734;SDS011;2892;47.592;7.688;2024-02-28T10:17:26;41.63;;;22.33;;
5734;SDS011;2892;47.592;7.688;2024-02-28T10:19:52;41.00;;;21.87;;
5734;SDS011;2892;47.592;7.688;2024-02-28T10:22:17;43.80;;;22.40;;
5734;SDS011;2892;47.592;7.688;2024-02-28T10:24:43;40.97;;;22.23;;
5734;SDS011;2892;47.592;7.688;2024-02-28T10:27:09;34.90;;;20.23;;
5734;SDS011;2892;47.592;7.688;2024-02-28T10:29:34;37.83;;;20.87;;
5734;SDS011;2892;47.592;7.688;2024-02-28T10:32:00;48.30;;;23.00;;
5734;SDS011;2892;47.592;7.688;2024-02-28T10:34:25;38.67;;;21.13;;
5734;SDS011;2892;47.592;7.688;2024-02-28T10:36:51;37.83;;;19.80;;
5734;SDS011;2892;47.592;7.688;2024-02-28T10:39:16;36.40;;;19.00;;
5734;SDS011;2892;47.592;7.688;2024-02-28T10:41:42;36.83;;;20.10;;
5734;SDS011;2892;47.592;7.688;2024-02-28T10:44:09;44.80;;;23.33;;
5734;SDS011;2892;47.592;7.688;2024-02-28T10:46:37;37.60;;;22.40;;
5734;SDS011;2892;47.592;7.688;2024-02-28T10:49:04;39.83;;;19.07;;
5734;SDS011;2892;47.592;7.688;2024-02-28T10:51:30;35.97;;;21.70;;
5734;SDS011;2892;47.592;7.688;2024-02-28T10:54:08;40.77;;;22.33;;
5734;SDS011;2892;47.592;7.688;2024-02-28T10:56:35;40.90;;;21.53;;
5734;SDS011;2892;47.592;7.688;2024-02-28T10:59:00;39.57;;;21.00;;
5734;SDS011;2892;47.592;7.688;2024-02-28T11:01:26;42.67;;;21.83;;
5734;SDS011;2892;47.592;7.688;2024-02-28T11:03:52;31.07;;;18.30;;
5734;SDS011;2892;47.592;7.688;2024-02-28T11:06:18;36.23;;;20.00;;
5734;SDS011;2892;47.592;7.688;2024-02-28T11:08:45;35.40;;;18.20;;
5734;SDS011;2892;47.592;7.688;2024-02-28T11:11:13;36.33;;;20.80;;
5734;SDS011;2892;47.592;7.688;2024-02-28T11:13:39;40.10;;;18.37;;
5734;SDS011;2892;47.592;7.688;2024-02-28T11:16:08;38.13;;;19.03;;
5734;SDS011;2892;47.592;7.688;2024-02-28T11:18:34;28.23;;;17.43;;
5734;SDS011;2892;47.592;7.688;2024-02-28T11:20:59;38.87;;;18.70;;
5734;SDS011;2892;47.592;7.688;2024-02-28T11:23:25;39.07;;;18.47;;
5734;SDS011;2892;47.592;7.688;2024-02-28T11:26:00;38.87;;;19.90;;
5734;SDS011;2892;47.592;7.688;2024-02-28T11:28:25;33.30;;;20.00;;
5734;SDS011;2892;47.592;7.688;2024-02-28T11:30:51;43.53;;;20.87;;
5734;SDS011;2892;47.592;7.688;2024-02-28T11:33:16;41.80;;;21.87;;
5734;SDS011;2892;47.592;7.688;2024-02-28T11:35:41;37.77;;;19.73;;
5734;SDS011;2892;47.592;7.688;2024-02-28T11:38:07;34.87;;;21.03;;
5734;SDS011;2892;47.592;7.688;2024-02-28T11:40:32;39.27;;;19.87;;
5734;SDS011;2892;47.592;7.688;2024-02-28T11:42:58;40.83;;;18.97;;
5734;SDS011;2892;47.592;7.688;2024-02-28T11:45:23;45.23;;;22.27;;
5734;SDS011;2892;47.592;7.688;2024-02-28T11:47:49;36.37;;;20.43;;
5734;SDS011;2892;47.592;7.688;2024-02-28T11:50:14;43.70;;;21.20;;
5734;SDS011;2892;47.592;7.688;2024-02-28T11:52:40;43.57;;;21.27;;
5734;SDS011;2892;47.592;7.688;2024-02-28T11:55:05;42.77;;;20.83;;
5734;SDS011;2892;47.592;7.688;2024-02-28T11:57:31;37.50;;;21.00;;
5734;SDS011;2892;47.592;7.688;2024-02-28T11:59:57;39.63;;;20.20;;
5734;SDS011;2892;47.592;7.688;2024-02-28T12:02:22;38.27;;;17.13;;
5734;SDS011;2892;47.592;7.688;2024-02-28T12:04:48;36.43;;;21.40;;
5734;SDS011;2892;47.592;7.688;2024-02-28T12:07:13;34.23;;;16.87;;
5734;SDS011;2892;47.592;7.688;2024-02-28T12:09:39;36.83;;;16.80;;
5734;SDS011;2892;47.592;7.688;2024-02-28T12:12:06;25.27;;;15.43;;
5734;SDS011;2892;47.592;7.688;2024-02-28T12:14:32;27.57;;;15.33;;
5734;SDS011;2892;47.592;7.688;2024-02-28T12:17:01;32.97;;;17.07;;
5734;SDS011;2892;47.592;7.688;2024-02-28T12:19:27;27.33;;;16.10;;
5734;SDS011;2892;47.592;7.688;2024-02-28T12:21:52;32.67;;;17.80;;
5734;SDS011;2892;47.592;7.688;2024-02-28T12:24:18;31.57;;;16.73;;
5734;SDS011;2892;47.592;7.688;2024-02-28T12:26:43;27.60;;;14.17;;
5734;SDS011;2892;47.592;7.688;2024-02-28T12:29:09;29.20;;;15.73;;
5734;SDS011;2892;47.592;7.688;2024-02-28T12:31:34;25.57;;;14.77;;
5734;SDS011;2892;47.592;7.688;2024-02-28T12:34:00;27.73;;;14.33;;
5734;SDS011;2892;47.592;7.688;2024-02-28T12:36:25;41.40;;;17.67;;
5734;SDS011;2892;47.592;7.688;2024-02-28T12:38:51;24.20;;;14.17;;
5734;SDS011;2892;47.592;7.688;2024-02-28T12:41:16;28.00;;;13.93;;
5734;SDS011;2892;47.592;7.688;2024-02-28T12:43:42;29.83;;;15.53;;
5734;SDS011;2892;47.592;7.688;2024-02-28T12:46:08;31.97;;;16.90;;
5734;SDS011;2892;47.592;7.688;2024-02-28T12:48:37;29.43;;;16.60;;
5734;SDS011;2892;47.592;7.688;2024-02-28T12:51:03;24.23;;;15.33;;
5734;SDS011;2892;47.592;7.688;2024-02-28T12:53:29;29.07;;;15.70;;
5734;SDS011;2892;47.592;7.688;2024-02-28T12:55:55;29.83;;;16.23;;
5734;SDS011;2892;47.592;7.688;2024-02-28T12:58:21;24.63;;;14.13;;
5734;SDS011;2892;47.592;7.688;2024-02-28T13:00:46;23.70;;;14.93;;
5734;SDS011;2892;47.592;7.688;2024-02-28T13:03:12;24.13;;;13.77;;
5734;SDS011;2892;47.592;7.688;2024-02-28T13:05:37;27.20;;;14.50;;
5734;SDS011;2892;47.592;7.688;2024-02-28T13:08:03;32.70;;;16.07;;
5734;SDS011;2892;47.592;7.688;2024-02-28T13:10:29;30.80;;;15.93;;
5734;SDS011;2892;47.592;7.688;2024-02-28T13:12:54;35.13;;;11.10;;
5734;SDS011;2892;47.592;7.688;2024-02-28T13:15:20;25.27;;;15.00;;
5734;SDS011;2892;47.592;7.688;2024-02-28T13:17:45;30.20;;;15.20;;
5734;SDS011;2892;47.592;7.688;2024-02-28T13:20:11;26.90;;;13.53;;
5734;SDS011;2892;47.592;7.688;2024-02-28T13:22:36;28.80;;;13.90;;
5734;SDS011;2892;47.592;7.688;2024-02-28T13:25:02;22.90;;;13.57;;
5734;SDS011;2892;47.592;7.688;2024-02-28T13:27:27;24.67;;;13.87;;
5734;SDS011;2892;47.592;7.688;2024-02-28T13:29:53;23.47;;;14.27;;
5734;SDS011;2892;47.592;7.688;2024-02-28T13:32:18;30.30;;;14.47;;
5734;SDS011;2892;47.592;7.688;2024-02-28T13:34:44;25.67;;;14.03;;
5734;SDS011;2892;47.592;7.688;2024-02-28T13:37:09;19.47;;;13.27;;
5734;SDS011;2892;47.592;7.688;2024-02-28T13:39:35;27.87;;;15.33;;
5734;SDS011;2892;47.592;7.688;2024-02-28T13:42:00;26.77;;;15.43;;
5734;SDS011;2892;47.592;7.688;2024-02-28T13:44:26;26.40;;;14.87;;
5734;SDS011;2892;47.592;7.688;2024-02-28T13:46:51;28.13;;;15.57;;
5734;SDS011;2892;47.592;7.688;2024-02-28T13:49:17;21.27;;;13.57;;
5734;SDS011;2892;47.592;7.688;2024-02-28T13:51:44;22.90;;;13.60;;
5734;SDS011;2892;47.592;7.688;2024-02-28T13:54:09;30.43;;;14.27;;
5734;SDS011;2892;47.592;7.688;2024-02-28T13:56:35;17.13;;;11.50;;
5734;SDS011;2892;47.592;7.688;2024-02-28T13:59:00;18.83;;;12.10;;
5734;SDS011;2892;47.592;7.688;2024-02-28T14:01:26;21.40;;;12.23;;
5734;SDS011;2892;47.592;7.688;2024-02-28T14:03:52;21.70;;;12.70;;
5734;SDS011;2892;47.592;7.688;2024-02-28T14:06:18;26.90;;;13.43;;
5734;SDS011;2892;47.592;7.688;2024-02-28T14:08:43;24.40;;;12.07;;
5734;SDS011;2892;47.592;7.688;2024-02-28T14:11:09;25.60;;;11.70;;
5734;SDS011;2892;47.592;7.688;2024-02-28T14:13:35;22.90;;;13.47;;
5734;SDS011;2892;47.592;7.688;2024-02-28T14:16:00;26.10;;;12.93;;
5734;SDS011;2892;47.592;7.688;2024-02-28T14:18:26;25.97;;;13.60;;
5734;SDS011;2892;47.592;7.688;2024-02-28T14:20:52;26.80;;;14.10;;
5734;SDS011;2892;47.592;7.688;2024-02-28T14:23:17;34.93;;;12.70;;
5734;SDS011;2892;47.592;7.688;2024-02-28T14:25:43;25.43;;;12.67;;
5734;SDS011;2892;47.592;7.688;2024-02-28T14:28:08;29.00;;;15.20;;
5734;SDS011;2892;47.592;7.688;2024-02-28T14:30:34;21.63;;;12.73;;
5734;SDS011;2892;47.592;7.688;2024-02-28T14:32:59;24.07;;;12.53;;
5734;SDS011;2892;47.592;7.688;2024-02-28T14:35:25;24.40;;;14.17;;
5734;SDS011;2892;47.592;7.688;2024-02-28T14:37:50;28.07;;;13.23;;
5734;SDS011;2892;47.592;7.688;2024-02-28T14:40:16;20.07;;;11.27;;
5734;SDS011;2892;47.592;7.688;2024-02-28T14:42:42;25.37;;;10.87;;